Sao Felix do Piaui, Brazil
Current Conditions -  °F | °C
As of 10:00 AM on Saturday 25 Oct 2014 (Local Time) from SBTE Reporting Station
Scattered Clouds Scattered Clouds  
Wind Chill: 90°   Ceiling: Unl
Heat Index: 95°   Visibility: 6mi
Dew Point: 70°   Wind: 7mph
Humidity: 52%   Direction: 150°SSE
Pressure: 29.85"   Gusts: NA
Location:  5.95°S, 42.11°W
Report Text: SBTE 251300Z 15006KT 9999 SCT020 32/21 Q1011
Loading
Personal Weather Stations






























Interactive Weather Map New forecast layout! Learn more

10-Day Weather Forecast

Advertisements
Track Severe Weather on mobile